• Join FlightAware (Why Join?)
  • Login
  • US Flag 
06:02PM EST


 

Airport Tracker/Info


-or-


 

Live Flight TrackerFlight Track Log ✈ EJA729 ✈ 21-Jun-2013 ✈ KMYR - KMQY

Flight Track Log - Related Links

Times and Time Zones

All times are in EDT time to prevent confusion due to time zone crossing. See the EJA729 flight status page for this flight to view local times or setup timezone preferences in your user account.

Time Position Orientation Groundspeed Altitude Reporting Facility
EDT Latitude Longitude Course Direction KTS MPH feet Rate Location/Type
02:47PM 33.7833 -79.0194 301° West 239 275 5,400  Level Jacksonville Center
02:48PM 33.8214 -79.1078 297° West 264 304 9,800 3,540 Climbing Jacksonville Center
02:49PM 33.8661 -79.2108 298° West 304 350 12,500 3,060 Climbing Jacksonville Center
02:50PM 33.9108 -79.3167 297° West 345 397 16,000 3,060 Climbing Jacksonville Center
02:51PM 33.9440 -79.4864 298° West  Level FlightAware Approximate
02:52PM 33.9863 -79.6056 301° West  Level FlightAware Approximate
02:52PM 34.0131 -79.5456 298° West 377 434 21,700  Level Jacksonville Center
02:53PM 34.0434 -79.7197 301° West  Level FlightAware Approximate
02:53PM 34.0686 -79.6686 299° West 402 463 24,100  Level Jacksonville Center
02:54PM 34.1217 -79.7922 297° West 407 468 26,500 2,220 Climbing Jacksonville Center
02:55PM 34.1769 -79.9208 297° West 417 480 28,600 1,980 Climbing Jacksonville Center
02:56PM 34.2322 -80.0519 297° West 428 493 30,500 1,740 Climbing Jacksonville Center
02:58PM 34.3672 -80.3597 298° West 448 516 34,400 1,620 Climbing Atlanta Center
02:59PM 34.4233 -80.4881 298° West 442 509 35,900 1,380 Climbing Atlanta Center
03:00PM 34.4767 -80.6069 299° West 442 509 37,200 1,020 Climbing Atlanta Center
03:01PM 34.5325 -80.7408 297° West 448 516 38,000 360 Climbing Atlanta Center
03:02PM 34.5906 -80.8797 297° West 449 517 38,000  Level Atlanta Center
03:03PM 34.6483 -81.0189 297° West 454 522 38,000  Level Atlanta Center
03:04PM 34.7078 -81.1533 298° West 459 528 38,000  Level Atlanta Center
03:05PM 34.7719 -81.3053 297° West 465 535 38,000  Level Atlanta Center
03:06PM 34.8314 -81.4475 297° West 459 528 38,000  Level Atlanta Center
03:07PM 34.8883 -81.5825 297° West 464 534 38,000  Level Atlanta Center
03:08PM 34.9497 -81.7303 297° West 464 534 38,000  Level Atlanta Center
03:09PM 35.0042 -81.8631 297° West 458 527 38,000  Level Atlanta Center
03:10PM 35.0650 -82.0011 298° West 463 533 38,000  Level Atlanta Center
03:11PM 35.1256 -82.1367 299° West 463 533 38,000  Level Atlanta Center
03:12PM 35.1881 -82.2725 299° West 463 533 38,000 -120 Level Atlanta Center
03:13PM 35.2419 -82.3958 298° West 463 533 37,800 -900 Descending Atlanta Center
03:14PM 35.3042 -82.5297 300° West 457 526 36,200 -1,440 Descending Atlanta Center
03:15PM 35.3686 -82.6736 299° West 451 519 35,000 -1,080 Descending Atlanta Center
03:16PM 35.4306 -82.8153 298° West 451 519 34,100 -1,260 Descending Atlanta Center
03:17PM 35.4881 -82.9419 299° West 463 533 32,500 -1,560 Descending Atlanta Center
03:18PM 35.5497 -83.0817 299° West 470 541 31,000 -1,260 Descending Atlanta Center
03:19PM 35.6197 -83.2417 298° West 475 547 30,000 -540 Descending Atlanta Center
03:20PM 35.6853 -83.3894 299° West 475 547 30,000 -60 Level Atlanta Center
03:21PM 35.7486 -83.5397 297° West 480 552 29,900 -900 Descending Atlanta Center
03:22PM 35.7575 -83.7008 274° West 479 551 28,300 -1,560 Descending Atlanta Center
03:23PM 35.7681 -83.8544 275° West 452 520 26,800 -1,500 Descending Atlanta Center
03:24PM 35.7600 -84.0056 266° West 447 514 25,300 -1,500 Descending Atlanta Center
03:25PM 35.7494 -84.1564 265° West 447 514 23,900 -1,200 Descending Atlanta Center
03:26PM 35.7408 -84.3075 266° West 447 514 23,000 -480 Descending Atlanta Center
03:27PM 35.7300 -84.4608 265° West 447 514 23,000 -300 Level Atlanta Center
03:28PM 35.7211 -84.6117 266° West 447 514 22,500 -1,080 Descending Atlanta Center
03:29PM 35.7119 -84.7575 266° West 441 507 20,900 -1,080 Descending Atlanta Center
03:33PM 35.6525 -85.1833 260° West 407 468 18,000 -720 Descending Memphis Center
03:34PM 35.6394 -85.3272 264° West 417 480 18,000  Level Memphis Center
03:35PM 35.6328 -85.4681 267° West 424 488 18,000 -120 Level Memphis Center
03:36PM 35.6047 -85.6078 256° West 424 488 17,800 -1,020 Descending Memphis Center
03:37PM 35.5806 -85.7419 258° West 418 481 16,000 -1,920 Descending Memphis Center
03:38PM 35.5472 -85.8561 250° West 390 449 14,000 -1,980 Descending Memphis Center
03:39PM 35.4789 -85.9311 222° Southwest 343 395 12,100 -1,020 Descending Memphis Center
03:40PM 35.3933 -85.9864 208° Southwest 330 380 12,000 -60 Descending Memphis Center
03:41PM 35.3425 -86.0833 237° Southwest 343 395 12,000  Level Memphis Center
03:42PM 35.3944 -86.1978 299° West 296 341 12,000  Level Memphis Center
03:43PM 35.4778 -86.2625 328° Northwest 315 362 12,000 -480 Level Memphis Center
03:44PM 35.5481 -86.3075 332° Northwest 315 362 11,100 -1,440 Descending Memphis Center
03:45PM 35.6186 -86.3553 331° Northwest 307 353 9,200 -1,560 Descending Memphis Center
03:46PM 35.6897 -86.3644 354° North 268 308 8,000 -660 Descending Memphis Center
03:47PM 35.7572 -86.3842 347° North 254 292 7,900 -1,260 Descending Memphis Center
03:48PM 35.8325 -86.3933 354° North 259 298 5,500 -2,460 Descending Memphis Center
03:49PM 35.9058 -86.4078 351° North 265 305 3,000 -1,800 Descending Memphis Center
03:50PM 35.9739 -86.4431 337° Northwest 258 297 1,900 -780 Descending Memphis Center
03:51PM 36.0314 -86.4864 329° Northwest 240 276 1,500 -360 Descending Memphis Center
03:52PM 36.0333 -86.5500 272° West 164 189 1,000 -360 Descending Nashville TRACON
03:54PM 36.0090 -86.5201 141° Southeast  Level Estimated
04:01PM 36.0090 -86.5201 141° Southeast  Level Estimated